Time;durP1;ratioP1;P1;durP2;ratioP2;P2;SDS_P1;SDS_P2;PMS_P1;PMS_P2;Temp;Humidity;BMP_temperature;BMP_pressure;BME280_temperature;BME280_humidity;BME280_pressure;Samples;Min_cycle;Max_cycle;Signal;HPM_P1;HPM_P2
2022/03/01 00:00:53;;;;;;;9.67;6.70;;;2.30;99.90;;;;;;5036844;28;20482;-82
2022/03/01 00:03:20;;;;;;;11.70;7.53;;;2.30;99.90;;;;;;5043664;28;20559;-83
2022/03/01 00:05:47;;;;;;;11.30;6.53;;;2.20;99.90;;;;;;5041275;28;20545;-82
2022/03/01 00:08:14;;;;;;;9.90;6.67;;;2.20;99.90;;;;;;5039349;28;20497;-82
2022/03/01 00:10:41;;;;;;;10.07;6.30;;;2.20;99.90;;;;;;5038969;28;20457;-83
2022/03/01 00:13:08;;;;;;;10.83;6.23;;;2.20;99.90;;;;;;5038910;28;20494;-82
2022/03/01 00:15:37;;;;;;;11.23;6.10;;;2.20;99.90;;;;;;5038029;28;20555;-82
2022/03/01 00:18:04;;;;;;;9.73;6.57;;;2.20;99.90;;;;;;5046309;28;20484;-82
2022/03/01 00:20:37;;;;;;;11.50;6.60;;;2.10;99.90;;;;;;5047310;28;20453;-82
2022/03/01 00:23:09;;;;;;;10.97;6.77;;;2.10;99.90;;;;;;5018054;28;20946;-82
2022/03/01 00:28:53;;;;;;;9.37;6.03;;;2.10;99.90;;;;;;5050124;22;20510;-84
2022/03/01 00:31:21;;;;;;;13.30;6.87;;;2.00;99.90;;;;;;5055127;28;20537;-84
2022/03/01 00:33:58;;;;;;;9.00;6.80;;;2.00;99.90;;;;;;5047529;28;20494;-83
2022/03/01 00:36:41;;;;;;;10.13;6.80;;;2.10;99.90;;;;;;5043803;28;20455;-82
2022/03/01 00:42:32;;;;;;;11.70;6.77;;;1.90;99.90;;;;;;5039460;28;20424;-82
2022/03/01 00:45:13;;;;;;;10.77;6.87;;;1.90;99.90;;;;;;5029902;28;20507;-83
2022/03/01 00:47:44;;;;;;;9.97;6.57;;;1.90;99.90;;;;;;5041338;28;20522;-85
2022/03/01 00:50:20;;;;;;;15.00;6.87;;;1.90;99.90;;;;;;5044658;28;20577;-83
2022/03/01 00:52:50;;;;;;;9.93;7.10;;;1.90;99.90;;;;;;5044340;28;20479;-83
2022/03/01 00:55:22;;;;;;;12.67;7.00;;;1.90;99.90;;;;;;5042044;28;20426;-82
2022/03/01 00:57:52;;;;;;;10.33;7.37;;;1.80;99.90;;;;;;5045092;28;20484;-82
2022/03/01 01:00:29;;;;;;;9.57;6.50;;;1.80;99.90;;;;;;5035397;28;20499;-83
2022/03/01 01:03:06;;;;;;;8.83;5.77;;;1.80;99.90;;;;;;5032277;28;20456;-82
2022/03/01 01:05:33;;;;;;;11.43;6.90;;;1.80;99.90;;;;;;5033047;28;20449;-83
2022/03/01 01:08:00;;;;;;;8.27;6.07;;;1.80;99.90;;;;;;5036779;28;20453;-83
2022/03/01 01:10:27;;;;;;;8.43;5.53;;;1.80;99.90;;;;;;5033061;28;20445;-82
2022/03/01 01:12:54;;;;;;;11.10;6.40;;;1.80;99.90;;;;;;5035935;28;20494;-83
2022/03/01 01:15:21;;;;;;;10.50;6.97;;;1.70;99.90;;;;;;5033697;28;21052;-82
2022/03/01 01:17:48;;;;;;;8.43;5.70;;;1.80;99.90;;;;;;5034300;28;20442;-83
2022/03/01 01:20:58;;;;;;;10.50;6.60;;;1.70;99.90;;;;;;5034442;28;20476;-83
2022/03/01 01:23:25;;;;;;;10.10;5.73;;;1.70;99.90;;;;;;4989701;28;20459;-82
2022/03/01 01:25:52;;;;;;;8.53;5.60;;;1.70;99.90;;;;;;5030493;28;20532;-82
2022/03/01 01:28:29;;;;;;;8.00;6.33;;;1.60;99.90;;;;;;5047865;22;20819;-81
2022/03/01 01:30:57;;;;;;;9.07;6.20;;;1.60;99.90;;;;;;5046777;28;20460;-83
2022/03/01 01:33:23;;;;;;;10.63;7.03;;;1.60;99.90;;;;;;5055569;28;20914;-82
2022/03/01 01:35:52;;;;;;;10.80;6.67;;;1.60;99.90;;;;;;5056197;28;20514;-83
2022/03/01 01:38:19;;;;;;;9.43;6.37;;;1.60;99.90;;;;;;5056859;28;20512;-83
2022/03/01 01:40:46;;;;;;;10.17;6.00;;;1.60;99.90;;;;;;5056510;28;20561;-81
2022/03/01 01:43:13;;;;;;;8.53;5.80;;;1.50;99.90;;;;;;5057220;28;20455;-80
2022/03/01 01:45:40;;;;;;;9.13;6.57;;;1.50;99.90;;;;;;5057402;28;20467;-84
2022/03/01 01:48:07;;;;;;;8.30;6.90;;;1.50;99.90;;;;;;5056445;28;20511;-83
2022/03/01 01:50:35;;;;;;;9.40;5.80;;;1.50;99.90;;;;;;5056964;28;20490;-82
2022/03/01 01:53:12;;;;;;;9.43;6.07;;;1.50;99.90;;;;;;5054315;28;20336;-80
2022/03/01 01:55:39;;;;;;;8.97;5.70;;;1.50;99.90;;;;;;5055785;28;20856;-83
2022/03/01 01:58:06;;;;;;;10.87;5.83;;;1.50;99.90;;;;;;5055664;28;20543;-83
2022/03/01 02:00:33;;;;;;;8.27;6.17;;;1.50;99.90;;;;;;5055197;28;20454;-83
2022/03/01 02:03:00;;;;;;;8.57;6.20;;;1.50;99.90;;;;;;5055617;28;20451;-81
2022/03/01 02:05:27;;;;;;;10.50;5.87;;;1.50;99.90;;;;;;5037986;28;20893;-82
2022/03/01 02:07:55;;;;;;;8.40;5.60;;;1.50;99.90;;;;;;5046096;28;20695;-83
2022/03/01 02:10:23;;;;;;;8.23;6.17;;;1.50;99.90;;;;;;5056272;28;20454;-83
2022/03/01 02:12:50;;;;;;;9.23;5.77;;;1.50;99.90;;;;;;5056102;28;20538;-78
2022/03/01 02:15:17;;;;;;;9.13;5.73;;;1.50;99.90;;;;;;5054755;28;20450;-81
2022/03/01 02:17:45;;;;;;;11.43;6.77;;;1.50;99.90;;;;;;5055333;28;20962;-83
2022/03/01 02:20:18;;;;;;;10.30;5.73;;;1.60;99.90;;;;;;5055236;28;20495;-82
2022/03/01 02:22:45;;;;;;;9.70;6.00;;;1.60;99.90;;;;;;5059657;28;20448;-83
2022/03/01 02:25:12;;;;;;;9.23;6.30;;;1.70;99.90;;;;;;5058122;28;20547;-82
2022/03/01 02:27:40;;;;;;;9.17;6.40;;;1.80;99.90;;;;;;5059217;28;20456;-83
2022/03/01 02:30:09;;;;;;;9.80;5.80;;;2.00;99.90;;;;;;5059435;28;20476;-83
2022/03/01 02:32:46;;;;;;;8.30;5.80;;;2.10;99.90;;;;;;5060151;28;20479;-81
2022/03/01 02:35:13;;;;;;;7.40;5.47;;;2.30;99.90;;;;;;5060981;28;20486;-82
2022/03/01 02:37:42;;;;;;;8.27;5.37;;;2.40;99.90;;;;;;5061122;28;20547;-83
2022/03/01 02:40:10;;;;;;;8.03;5.70;;;2.60;99.90;;;;;;5061403;28;20468;-82
2022/03/01 02:42:37;;;;;;;10.00;5.40;;;2.70;99.90;;;;;;5061140;28;20459;-81
2022/03/01 02:45:05;;;;;;;10.37;5.70;;;2.70;99.90;;;;;;5054771;28;20895;-82
2022/03/01 02:47:32;;;;;;;11.00;5.57;;;2.80;99.90;;;;;;5047342;28;20451;-83
2022/03/01 02:49:59;;;;;;;8.00;5.00;;;2.80;99.90;;;;;;5060948;28;20870;-83
2022/03/01 02:52:26;;;;;;;8.83;5.10;;;2.90;99.90;;;;;;5061322;28;20539;-83
2022/03/01 02:54:54;;;;;;;9.00;5.47;;;2.90;99.90;;;;;;5059992;28;20459;-82
2022/03/01 02:57:21;;;;;;;9.73;5.80;;;2.90;99.90;;;;;;5061082;28;20434;-83
2022/03/01 02:59:48;;;;;;;11.30;6.77;;;2.90;99.90;;;;;;5060779;28;20483;-82
2022/03/01 03:02:15;;;;;;;8.03;6.00;;;2.90;99.90;;;;;;5061003;28;20479;-82
2022/03/01 03:04:42;;;;;;;8.30;6.10;;;2.80;99.90;;;;;;5059066;28;20794;-84
2022/03/01 03:07:09;;;;;;;7.77;5.30;;;2.80;99.90;;;;;;5043228;28;20444;-82
2022/03/01 03:09:36;;;;;;;12.23;5.93;;;2.80;99.90;;;;;;5060673;28;20479;-81
2022/03/01 03:12:06;;;;;;;11.00;6.67;;;2.80;99.90;;;;;;5060685;28;20454;-83
2022/03/01 03:14:33;;;;;;;8.90;5.67;;;2.80;99.90;;;;;;5040199;28;20525;-82
2022/03/01 03:17:00;;;;;;;7.90;5.47;;;2.80;99.90;;;;;;5046120;28;20483;-82
2022/03/01 03:19:27;;;;;;;9.63;5.60;;;2.80;99.90;;;;;;5060530;28;20481;-82
2022/03/01 03:21:54;;;;;;;8.20;5.13;;;2.80;99.90;;;;;;5060380;28;20563;-83
2022/03/01 03:24:21;;;;;;;7.93;5.70;;;2.90;99.90;;;;;;5059916;28;20542;-83
2022/03/01 03:26:48;;;;;;;7.53;4.97;;;2.90;99.90;;;;;;5048323;28;20456;-82
2022/03/01 03:29:18;;;;;;;7.70;4.83;;;3.00;99.90;;;;;;5059414;28;20570;-82
2022/03/01 03:31:45;;;;;;;8.10;5.17;;;3.00;99.90;;;;;;5054766;28;20465;-82
2022/03/01 03:34:13;;;;;;;9.17;5.30;;;3.10;99.90;;;;;;5059864;28;20456;-82
2022/03/01 03:36:41;;;;;;;9.73;5.10;;;3.20;99.90;;;;;;5060182;28;20451;-82
2022/03/01 03:39:10;;;;;;;11.00;5.10;;;3.20;99.90;;;;;;5059815;28;20477;-83
2022/03/01 03:41:37;;;;;;;7.97;5.03;;;3.30;99.90;;;;;;5059899;28;20469;-82
2022/03/01 03:44:05;;;;;;;7.33;5.03;;;3.30;99.90;;;;;;5059666;28;20441;-82
2022/03/01 03:46:33;;;;;;;9.50;6.20;;;3.30;99.90;;;;;;5058565;28;20450;-82
2022/03/01 03:49:00;;;;;;;6.50;5.10;;;3.20;99.90;;;;;;5059638;28;20496;-84
2022/03/01 03:51:27;;;;;;;10.00;5.83;;;3.20;99.90;;;;;;5060154;28;20475;-83
2022/03/01 03:53:54;;;;;;;10.47;6.57;;;3.20;99.90;;;;;;5059981;28;20904;-83
2022/03/01 03:56:21;;;;;;;8.07;4.90;;;3.20;99.90;;;;;;5059947;28;20460;-83
2022/03/01 03:58:48;;;;;;;9.77;5.90;;;3.20;99.90;;;;;;5060491;28;20510;-81
2022/03/01 04:01:15;;;;;;;8.77;5.67;;;3.20;99.90;;;;;;5064783;28;20486;-82
2022/03/01 04:03:44;;;;;;;9.30;5.80;;;3.10;99.90;;;;;;5058962;28;20455;-82
2022/03/01 04:06:11;;;;;;;9.50;6.03;;;3.10;99.90;;;;;;5057225;28;20479;-82
2022/03/01 04:08:38;;;;;;;13.37;7.67;;;3.10;99.90;;;;;;5053134;28;20511;-83
2022/03/01 04:11:05;;;;;;;12.10;7.80;;;3.10;99.90;;;;;;5059845;28;20547;-83
2022/03/01 04:13:32;;;;;;;11.20;6.90;;;3.10;99.90;;;;;;5057457;28;20999;-85
2022/03/01 04:15:59;;;;;;;10.60;6.20;;;3.10;99.90;;;;;;5060454;28;20423;-83
2022/03/01 04:18:26;;;;;;;11.20;7.57;;;3.00;99.90;;;;;;5058100;28;20472;-84
2022/03/01 04:20:57;;;;;;;10.10;6.70;;;2.90;99.90;;;;;;5059633;28;20455;-83
2022/03/01 04:23:24;;;;;;;13.20;5.73;;;2.90;99.90;;;;;;5055535;28;20495;-82
2022/03/01 04:25:51;;;;;;;10.87;6.07;;;2.90;99.90;;;;;;5060082;28;20457;-82
2022/03/01 04:28:19;;;;;;;7.90;5.80;;;2.80;99.90;;;;;;5059986;28;21265;-82
2022/03/01 04:30:46;;;;;;;8.60;6.67;;;2.70;99.90;;;;;;5061463;28;20460;-83
2022/03/01 04:33:13;;;;;;;7.40;5.63;;;2.70;99.90;;;;;;5064057;28;20901;-84
2022/03/01 04:35:40;;;;;;;9.47;6.10;;;2.80;99.90;;;;;;5065632;28;20472;-83
2022/03/01 04:38:09;;;;;;;7.50;5.13;;;2.70;99.90;;;;;;5065680;28;20551;-84
2022/03/01 04:40:36;;;;;;;5.87;3.63;;;2.70;99.90;;;;;;5058850;28;20460;-76
2022/03/01 04:43:03;;;;;;;9.87;7.37;;;5.30;99.90;;;;;;5052266;28;20999;-80
2022/03/01 04:45:31;;;;;;;10.37;6.17;;;6.70;99.90;;;;;;5055087;28;20491;-80
2022/03/01 04:47:59;;;;;;;11.17;6.57;;;5.70;99.90;;;;;;5053170;28;20449;-78
2022/03/01 04:50:26;;;;;;;8.90;5.37;;;5.20;99.90;;;;;;5054510;28;20998;-78
2022/03/01 04:52:53;;;;;;;9.10;5.93;;;4.80;99.90;;;;;;5055100;28;20567;-81
2022/03/01 04:55:21;;;;;;;9.83;6.37;;;4.40;99.90;;;;;;5054183;28;20488;-82
2022/03/01 04:57:49;;;;;;;7.33;5.57;;;4.20;99.90;;;;;;5055658;28;20461;-79
2022/03/01 05:00:16;;;;;;;9.27;6.80;;;4.10;99.90;;;;;;5055162;28;20551;-82
2022/03/01 05:02:45;;;;;;;8.70;5.70;;;3.80;99.90;;;;;;5054646;28;20460;-79
2022/03/01 05:05:12;;;;;;;9.50;6.37;;;3.70;99.90;;;;;;5053954;28;20486;-78
2022/03/01 05:07:40;;;;;;;10.53;5.90;;;3.60;99.90;;;;;;5054728;28;20515;-78
2022/03/01 05:10:09;;;;;;;13.60;8.20;;;3.50;99.90;;;;;;5039969;28;20500;-80
2022/03/01 05:12:43;;;;;;;11.60;5.97;;;3.30;99.90;;;;;;5053859;28;20480;-84
2022/03/01 05:15:11;;;;;;;10.80;6.53;;;3.20;99.90;;;;;;5033144;28;20486;-80
2022/03/01 05:17:38;;;;;;;14.77;7.43;;;3.10;99.90;;;;;;5037517;28;20480;-79
2022/03/01 05:20:07;;;;;;;13.83;7.13;;;3.00;99.90;;;;;;5053222;28;20503;-79
2022/03/01 05:22:35;;;;;;;10.80;7.07;;;3.00;99.90;;;;;;5053997;28;20448;-79
2022/03/01 05:25:02;;;;;;;9.70;6.30;;;3.00;99.90;;;;;;5052846;28;20459;-79
2022/03/01 05:27:29;;;;;;;14.37;6.47;;;2.90;99.90;;;;;;5053448;28;20434;-80
2022/03/01 05:29:58;;;;;;;12.33;6.03;;;3.00;99.90;;;;;;5044156;28;20519;-79
2022/03/01 05:32:27;;;;;;;10.83;6.43;;;3.00;99.90;;;;;;5037006;28;20468;-80
2022/03/01 05:34:54;;;;;;;10.13;7.20;;;3.10;99.90;;;;;;5053242;28;20426;-80
2022/03/01 05:37:21;;;;;;;10.00;6.10;;;3.00;99.90;;;;;;5053570;28;20505;-78
2022/03/01 05:39:47;;;;;;;12.30;6.93;;;3.00;99.90;;;;;;5052931;28;20480;-79
2022/03/01 05:42:14;;;;;;;10.40;7.67;;;3.10;99.90;;;;;;5054451;28;20883;-79
2022/03/01 05:44:41;;;;;;;9.30;6.20;;;3.10;99.90;;;;;;5033516;28;20456;-81
2022/03/01 05:47:10;;;;;;;9.60;5.47;;;3.10;99.90;;;;;;5034940;28;20492;-79
2022/03/01 05:49:37;;;;;;;8.67;6.17;;;3.10;99.90;;;;;;5051411;28;20484;-79
2022/03/01 05:52:05;;;;;;;9.27;5.63;;;3.20;99.90;;;;;;5054118;28;20430;-80
2022/03/01 05:54:32;;;;;;;10.50;6.20;;;3.20;99.90;;;;;;5052253;28;20597;-79
2022/03/01 05:56:59;;;;;;;10.53;6.20;;;3.30;99.90;;;;;;5053668;28;20456;-79
2022/03/01 05:59:26;;;;;;;10.10;6.27;;;3.20;99.90;;;;;;5052888;28;20484;-81
2022/03/01 06:01:53;;;;;;;12.33;6.77;;;3.30;99.90;;;;;;5053931;28;20548;-79
2022/03/01 06:04:21;;;;;;;12.47;7.43;;;3.30;99.90;;;;;;5052682;28;20487;-79
2022/03/01 06:06:48;;;;;;;11.43;6.70;;;3.40;99.90;;;;;;5053896;28;20476;-81
2022/03/01 06:09:15;;;;;;;9.53;6.27;;;3.40;99.90;;;;;;5053195;28;20539;-80
2022/03/01 06:11:42;;;;;;;9.80;6.97;;;3.40;99.90;;;;;;5045713;28;20893;-80
2022/03/01 06:14:09;;;;;;;11.77;6.90;;;3.40;99.90;;;;;;5043841;28;20479;-80
2022/03/01 06:16:36;;;;;;;15.77;7.10;;;3.50;99.90;;;;;;5050198;28;20456;-78
2022/03/01 06:19:04;;;;;;;10.83;6.80;;;3.60;99.90;;;;;;5051809;28;20463;-79
2022/03/01 06:21:32;;;;;;;10.83;7.07;;;3.80;99.90;;;;;;5052467;28;20457;-80
2022/03/01 06:24:00;;;;;;;17.10;7.20;;;3.80;99.90;;;;;;5051503;28;20894;-81
2022/03/01 06:26:27;;;;;;;10.50;6.53;;;3.80;99.90;;;;;;5051961;28;20456;-79
2022/03/01 06:28:54;;;;;;;8.53;6.43;;;3.90;99.90;;;;;;5050883;28;20595;-78
2022/03/01 06:31:21;;;;;;;10.37;6.97;;;3.90;99.90;;;;;;5047703;28;20455;-79
2022/03/01 06:33:48;;;;;;;9.87;6.53;;;4.10;99.90;;;;;;5051882;28;20486;-80
2022/03/01 06:36:15;;;;;;;13.60;7.10;;;4.10;99.90;;;;;;5053530;28;20483;-79
2022/03/01 06:38:43;;;;;;;12.30;7.30;;;4.20;99.90;;;;;;5052645;28;20501;-80
2022/03/01 06:41:10;;;;;;;13.63;7.27;;;4.20;99.90;;;;;;5033168;28;20461;-81
2022/03/01 06:43:37;;;;;;;13.87;6.80;;;4.20;99.90;;;;;;5038281;28;20461;-77
2022/03/01 06:46:04;;;;;;;9.50;6.80;;;4.30;99.90;;;;;;5054889;28;20455;-80
2022/03/01 06:48:31;;;;;;;14.80;8.27;;;4.40;99.90;;;;;;5052337;28;20517;-79
2022/03/01 06:50:59;;;;;;;12.10;7.20;;;4.50;99.90;;;;;;5053066;28;20537;-81
2022/03/01 06:53:26;;;;;;;11.67;6.83;;;4.40;99.90;;;;;;5040285;28;21088;-80
2022/03/01 06:55:54;;;;;;;13.87;7.67;;;4.50;99.90;;;;;;5050515;28;21020;-78
2022/03/01 06:58:21;;;;;;;10.67;6.57;;;4.50;99.90;;;;;;5049593;28;20523;-79
2022/03/01 07:00:48;;;;;;;9.33;6.10;;;4.60;99.90;;;;;;5047181;28;20456;-79
2022/03/01 07:03:15;;;;;;;10.53;6.73;;;4.70;99.90;;;;;;5047496;28;20518;-84
2022/03/01 07:05:42;;;;;;;12.40;8.20;;;4.80;99.90;;;;;;5049832;28;20489;-80
2022/03/01 07:08:09;;;;;;;12.23;6.80;;;4.90;99.90;;;;;;5052591;28;20454;-79
2022/03/01 07:10:36;;;;;;;14.70;6.87;;;5.00;99.90;;;;;;5051356;28;21056;-79
2022/03/01 07:13:04;;;;;;;11.77;6.30;;;5.10;99.90;;;;;;5044313;28;20977;-80
2022/03/01 07:15:33;;;;;;;9.27;6.17;;;5.10;99.90;;;;;;5050336;28;20508;-79
2022/03/01 07:18:03;;;;;;;11.23;6.07;;;5.20;99.90;;;;;;5048460;28;20874;-79
2022/03/01 07:20:30;;;;;;;10.57;6.30;;;5.30;99.90;;;;;;5049735;28;21026;-80
2022/03/01 07:22:57;;;;;;;12.10;7.20;;;5.40;99.90;;;;;;5056966;28;20961;-80
2022/03/01 07:25:24;;;;;;;11.50;6.67;;;5.40;99.90;;;;;;5063531;28;20448;-80
2022/03/01 07:27:53;;;;;;;11.23;6.67;;;5.40;99.90;;;;;;5063912;28;20453;-82
2022/03/01 07:30:24;;;;;;;11.53;6.87;;;5.50;99.90;;;;;;5064749;28;20874;-80
2022/03/01 07:32:52;;;;;;;13.53;8.80;;;5.40;99.90;;;;;;5062367;28;20453;-79
2022/03/01 07:35:20;;;;;;;11.30;7.03;;;5.50;99.90;;;;;;5061938;28;20514;-80
2022/03/01 07:37:57;;;;;;;10.77;5.87;;;5.50;99.90;;;;;;5066519;28;20451;-78
2022/03/01 07:40:28;;;;;;;12.23;6.83;;;5.50;99.90;;;;;;5061285;28;20453;-79
2022/03/01 07:42:57;;;;;;;10.80;6.70;;;5.60;99.90;;;;;;5060597;28;20953;-79
2022/03/01 07:45:29;;;;;;;10.43;6.33;;;5.70;99.90;;;;;;5067090;28;20507;-81
2022/03/01 07:47:56;;;;;;;11.53;6.17;;;5.80;99.90;;;;;;5062061;28;20476;-79
2022/03/01 07:51:00;;;;;;;10.20;7.00;;;5.80;99.90;;;;;;5048827;28;20454;-83
2022/03/01 07:54:11;;;;;;;14.13;6.57;;;5.90;99.90;;;;;;5047249;28;21086;-81
2022/03/01 07:56:39;;;;;;;11.57;7.43;;;6.00;99.90;;;;;;5049930;28;20505;-80
2022/03/01 07:59:06;;;;;;;12.00;6.67;;;6.10;99.90;;;;;;5047464;28;20899;-80
2022/03/01 08:01:34;;;;;;;10.30;6.57;;;6.20;99.90;;;;;;5056548;28;20462;-80
2022/03/01 08:04:02;;;;;;;10.00;6.33;;;6.40;99.90;;;;;;5057605;28;20843;-80
2022/03/01 08:06:28;;;;;;;11.23;7.67;;;6.60;99.90;;;;;;5059424;28;20524;-80
2022/03/01 08:08:55;;;;;;;13.70;7.17;;;6.80;99.90;;;;;;5054766;28;20493;-83
2022/03/01 08:11:22;;;;;;;11.30;6.63;;;7.00;99.90;;;;;;5058446;28;20971;-80
2022/03/01 08:13:49;;;;;;;10.47;6.57;;;7.10;99.90;;;;;;5052297;28;20492;-81
2022/03/01 08:16:16;;;;;;;8.90;5.97;;;7.20;99.90;;;;;;5056613;28;20494;-80
2022/03/01 08:18:44;;;;;;;10.30;6.97;;;7.40;99.90;;;;;;5043543;28;21016;-80
2022/03/01 08:21:11;;;;;;;10.43;5.93;;;7.40;99.90;;;;;;5049933;28;20463;-82
2022/03/01 08:23:38;;;;;;;13.37;7.73;;;7.50;99.90;;;;;;5044049;28;20999;-78
2022/03/01 08:26:05;;;;;;;11.27;7.00;;;7.60;99.90;;;;;;5047066;28;20474;-77
2022/03/01 08:28:32;;;;;;;11.50;6.07;;;7.70;99.90;;;;;;5051319;28;20483;-79
2022/03/01 08:31:00;;;;;;;10.40;6.93;;;7.80;99.90;;;;;;5048839;28;20452;-78
2022/03/01 08:33:27;;;;;;;12.97;6.37;;;7.90;99.90;;;;;;5045167;28;20460;-78
2022/03/01 08:35:55;;;;;;;10.20;6.20;;;8.10;99.90;;;;;;5042923;28;20504;-78
2022/03/01 08:38:23;;;;;;;10.60;7.07;;;8.40;99.90;;;;;;5047687;28;20947;-77
2022/03/01 08:40:50;;;;;;;9.70;6.37;;;8.50;99.90;;;;;;5045636;28;20459;-78
2022/03/01 08:43:21;;;;;;;9.13;5.73;;;8.60;99.90;;;;;;5046418;28;20455;-78
2022/03/01 08:45:49;;;;;;;14.73;7.70;;;8.60;99.90;;;;;;5046583;28;20467;-79
2022/03/01 08:48:24;;;;;;;10.00;6.30;;;8.60;99.20;;;;;;5044729;28;20478;-78
2022/03/01 08:50:58;;;;;;;14.07;6.77;;;8.90;98.90;;;;;;5047673;28;20456;-79
2022/03/01 08:53:26;;;;;;;11.10;7.00;;;9.00;98.50;;;;;;5043964;28;20542;-82
2022/03/01 08:55:53;;;;;;;13.43;6.63;;;9.00;97.30;;;;;;5045807;28;20460;-79
2022/03/01 08:58:20;;;;;;;11.03;6.30;;;9.40;97.60;;;;;;5054816;28;20496;-78
2022/03/01 09:00:47;;;;;;;11.70;6.57;;;9.80;94.30;;;;;;5048428;28;20449;-79
2022/03/01 09:03:14;;;;;;;10.23;7.07;;;10.30;91.70;;;;;;5049117;28;20835;-78
2022/03/01 09:05:42;;;;;;;9.60;6.50;;;10.50;90.70;;;;;;5043732;28;20467;-76
2022/03/01 09:08:12;;;;;;;11.33;6.63;;;11.00;91.70;;;;;;5047298;28;20474;-78
2022/03/01 09:10:40;;;;;;;18.83;6.70;;;11.60;87.50;;;;;;5045970;28;20872;-78
2022/03/01 09:13:07;;;;;;;9.20;6.50;;;11.10;83.00;;;;;;5047677;28;21175;-80
2022/03/01 09:15:34;;;;;;;12.40;6.30;;;11.30;79.90;;;;;;5051837;28;20485;-81
2022/03/01 09:18:01;;;;;;;12.90;7.13;;;10.80;78.70;;;;;;5050965;28;20466;-78
2022/03/01 09:20:28;;;;;;;11.07;6.40;;;10.70;76.20;;;;;;5051694;28;20482;-81
2022/03/01 09:22:55;;;;;;;9.60;6.47;;;11.20;76.30;;;;;;5051984;28;20958;-79
2022/03/01 09:25:22;;;;;;;11.90;6.90;;;11.10;75.10;;;;;;5049916;28;20440;-82
2022/03/01 09:27:53;;;;;;;13.03;7.80;;;11.30;75.80;;;;;;5052018;28;20444;-78
2022/03/01 09:30:20;;;;;;;9.93;6.53;;;11.60;74.10;;;;;;5042762;28;20463;-78
2022/03/01 09:32:50;;;;;;;8.63;6.07;;;11.80;73.10;;;;;;5046321;28;20816;-78
2022/03/01 09:35:24;;;;;;;8.57;6.07;;;12.00;71.80;;;;;;5045840;28;20555;-78
2022/03/01 09:37:51;;;;;;;14.77;7.17;;;12.50;69.60;;;;;;5048345;28;20484;-79
2022/03/01 09:40:24;;;;;;;7.50;5.27;;;12.50;67.40;;;;;;5042817;28;20477;-79
2022/03/01 09:42:53;;;;;;;11.67;6.83;;;12.30;66.80;;;;;;5048293;28;20555;-79
2022/03/01 09:45:20;;;;;;;8.10;5.70;;;12.00;66.00;;;;;;5051460;28;20458;-79
2022/03/01 09:47:47;;;;;;;9.93;6.50;;;12.00;65.70;;;;;;5049391;28;20466;-79
2022/03/01 09:50:15;;;;;;;9.30;6.07;;;12.10;66.20;;;;;;5052353;28;20474;-78
2022/03/01 09:52:43;;;;;;;8.77;6.37;;;12.00;65.60;;;;;;5052164;28;20454;-80
2022/03/01 09:55:10;;;;;;;8.87;6.37;;;12.10;70.10;;;;;;5047347;28;20574;-79
2022/03/01 09:57:37;;;;;;;10.70;6.20;;;12.30;63.90;;;;;;5050454;28;20464;-80
2022/03/01 10:00:08;;;;;;;9.73;6.63;;;12.40;63.30;;;;;;5045168;28;20558;-78
2022/03/01 10:02:36;;;;;;;11.37;6.60;;;11.80;62.60;;;;;;5045099;28;20447;-78
2022/03/01 10:05:03;;;;;;;9.83;6.73;;;11.60;63.10;;;;;;5048485;28;20542;-79
2022/03/01 10:07:31;;;;;;;10.80;6.83;;;11.50;62.70;;;;;;5051404;28;20463;-79
2022/03/01 10:10:05;;;;;;;11.90;6.57;;;11.60;64.10;;;;;;5049021;28;20909;-79
2022/03/01 10:12:32;;;;;;;8.97;6.03;;;12.30;65.00;;;;;;5045190;28;20457;-79
2022/03/01 10:15:03;;;;;;;12.27;7.80;;;12.70;63.50;;;;;;5046241;28;20497;-78
2022/03/01 10:17:39;;;;;;;11.60;5.90;;;13.20;61.60;;;;;;5050723;28;20451;-80
2022/03/01 10:20:08;;;;;;;11.37;6.50;;;13.90;60.20;;;;;;5047665;28;20497;-78
2022/03/01 10:22:47;;;;;;;11.20;7.00;;;14.30;61.30;;;;;;5053154;28;20944;-78
2022/03/01 10:25:16;;;;;;;15.00;6.50;;;13.90;59.00;;;;;;5050547;28;20566;-79
2022/03/01 10:27:46;;;;;;;9.80;6.20;;;13.70;58.80;;;;;;5046989;28;20461;-79
2022/03/01 10:30:22;;;;;;;9.93;6.60;;;13.80;58.20;;;;;;5050091;28;20484;-80
2022/03/01 10:33:03;;;;;;;9.70;6.17;;;13.30;58.20;;;;;;5046209;28;20536;-81
2022/03/01 10:35:30;;;;;;;8.07;5.50;;;13.30;58.40;;;;;;5045081;28;20499;-78
2022/03/01 10:37:57;;;;;;;8.50;6.43;;;13.30;58.00;;;;;;5041500;28;20461;-79
2022/03/01 10:40:29;;;;;;;10.27;6.43;;;13.40;58.60;;;;;;5046202;28;20452;-81
2022/03/01 10:43:05;;;;;;;12.33;6.73;;;13.90;58.50;;;;;;5046697;28;20454;-82
2022/03/01 10:45:46;;;;;;;9.50;6.80;;;14.50;58.30;;;;;;5055357;28;20866;-80
2022/03/01 10:48:47;;;;;;;10.07;5.90;;;14.90;56.70;;;;;;5051948;28;20445;-82
2022/03/01 10:51:19;;;;;;;10.40;5.80;;;15.20;56.40;;;;;;5047820;28;20448;-79
2022/03/01 10:53:46;;;;;;;9.07;6.50;;;15.10;55.10;;;;;;5054474;28;20451;-80
2022/03/01 10:56:15;;;;;;;7.87;5.40;;;14.70;56.90;;;;;;5048045;28;21024;-79
2022/03/01 10:58:56;;;;;;;11.50;7.00;;;14.30;57.70;;;;;;5048136;28;21064;-78
2022/03/01 11:01:27;;;;;;;11.93;6.87;;;14.30;55.50;;;;;;5050594;28;20465;-79
2022/03/01 11:04:11;;;;;;;10.23;7.00;;;14.30;55.80;;;;;;5049009;28;20458;-79
2022/03/01 11:06:38;;;;;;;8.27;5.20;;;14.30;56.80;;;;;;5049188;28;20467;-80
2022/03/01 11:09:07;;;;;;;11.73;6.60;;;15.50;54.60;;;;;;5057165;28;20865;-79
2022/03/01 11:11:35;;;;;;;10.40;6.27;;;15.60;54.60;;;;;;5050176;28;20979;-79
2022/03/01 11:14:03;;;;;;;9.30;5.80;;;16.20;56.00;;;;;;5056533;28;20829;-82
2022/03/01 11:16:50;;;;;;;8.00;6.10;;;16.90;55.70;;;;;;5055767;28;20610;-81
2022/03/01 11:19:33;;;;;;;11.70;6.80;;;17.40;53.80;;;;;;5055276;28;20471;-79
2022/03/01 11:22:01;;;;;;;7.63;5.70;;;16.40;51.80;;;;;;5052759;28;20459;-81
2022/03/01 11:24:28;;;;;;;8.97;6.80;;;16.50;52.40;;;;;;5053663;28;20817;-79
2022/03/01 11:27:05;;;;;;;7.73;5.47;;;15.70;52.00;;;;;;5056101;28;20469;-79
2022/03/01 11:30:13;;;;;;;8.50;5.87;;;15.60;52.60;;;;;;5056117;28;20490;-80
2022/03/01 11:32:47;;;;;;;8.10;5.93;;;15.90;53.30;;;;;;5036351;28;20880;-79
2022/03/01 11:36:14;;;;;;;9.33;6.60;;;15.60;54.20;;;;;;5038988;28;20501;-78
2022/03/01 11:38:43;;;;;;;11.20;7.33;;;15.40;52.90;;;;;;5054511;28;20468;-79
2022/03/01 11:41:15;;;;;;;10.27;6.57;;;15.40;53.00;;;;;;5053119;28;20540;-78
2022/03/01 11:43:41;;;;;;;10.47;7.00;;;15.30;52.90;;;;;;5053435;28;20459;-80
2022/03/01 11:46:17;;;;;;;9.80;5.93;;;15.40;53.50;;;;;;5046181;28;20463;-79
2022/03/01 11:48:51;;;;;;;9.60;6.07;;;15.10;54.00;;;;;;5033992;28;20481;-81
2022/03/01 11:51:17;;;;;;;10.93;7.30;;;15.70;54.30;;;;;;5050369;28;20447;-79
2022/03/01 11:53:49;;;;;;;9.87;6.30;;;16.30;53.20;;;;;;5052714;28;20946;-79
2022/03/01 11:56:19;;;;;;;10.63;7.33;;;15.80;51.90;;;;;;5052745;28;20483;-80
2022/03/01 11:58:51;;;;;;;11.13;6.60;;;16.40;52.70;;;;;;5054356;28;20559;-79
2022/03/01 12:01:22;;;;;;;8.20;6.20;;;15.90;51.40;;;;;;5053744;28;20463;-80
2022/03/01 12:03:51;;;;;;;8.50;6.37;;;16.20;52.60;;;;;;5056508;28;20482;-80
2022/03/01 12:06:21;;;;;;;10.13;6.37;;;16.50;52.00;;;;;;5057305;28;20455;-80
2022/03/01 12:08:57;;;;;;;8.70;5.93;;;16.50;52.40;;;;;;5056262;28;20475;-80
2022/03/01 12:11:33;;;;;;;10.20;6.37;;;16.00;52.30;;;;;;5055870;28;20444;-79
2022/03/01 12:14:03;;;;;;;9.63;8.63;;;15.70;53.00;;;;;;5055666;28;20449;-79
2022/03/01 12:16:31;;;;;;;8.30;5.70;;;15.90;53.80;;;;;;5054024;28;20483;-79
2022/03/01 12:19:08;;;;;;;9.60;7.10;;;15.90;52.90;;;;;;5055718;28;20472;-79
2022/03/01 12:21:35;;;;;;;10.50;7.03;;;15.70;52.30;;;;;;5055029;28;20456;-79
2022/03/01 12:24:04;;;;;;;8.73;6.83;;;15.80;52.90;;;;;;5051971;28;20804;-79
2022/03/01 12:26:31;;;;;;;11.30;7.07;;;15.50;52.70;;;;;;5054032;28;20440;-79
2022/03/01 12:29:00;;;;;;;9.90;7.00;;;15.10;52.30;;;;;;5056554;28;20507;-77
2022/03/01 12:31:28;;;;;;;8.90;6.10;;;15.20;54.60;;;;;;5054085;28;20446;-80
2022/03/01 12:33:59;;;;;;;9.63;6.47;;;15.20;53.90;;;;;;5053011;28;20460;-82
2022/03/01 12:36:28;;;;;;;11.50;7.60;;;15.00;54.30;;;;;;5056882;28;20546;-80
2022/03/01 12:38:57;;;;;;;9.63;5.50;;;14.50;52.90;;;;;;5057238;28;20507;-80
2022/03/01 12:41:33;;;;;;;9.23;6.30;;;15.40;52.90;;;;;;5055915;28;20815;-80
2022/03/01 12:44:03;;;;;;;9.03;6.50;;;15.40;52.00;;;;;;5055495;28;20496;-81
2022/03/01 12:46:31;;;;;;;10.77;7.03;;;14.40;53.00;;;;;;5056667;28;20447;-78
2022/03/01 12:51:49;;;;;;;12.00;6.90;;;15.00;53.30;;;;;;5052242;28;20446;-79
2022/03/01 12:54:18;;;;;;;8.80;6.50;;;15.20;52.60;;;;;;5055103;28;20448;-81
2022/03/01 12:56:50;;;;;;;9.50;6.60;;;14.90;52.30;;;;;;5060518;28;20477;-79
2022/03/01 12:59:18;;;;;;;9.43;6.23;;;14.60;52.40;;;;;;5062536;28;20466;-80
2022/03/01 13:01:47;;;;;;;8.80;6.40;;;14.40;53.20;;;;;;5058885;28;20491;-79
2022/03/01 13:04:15;;;;;;;11.60;6.40;;;13.90;53.30;;;;;;5052897;28;20484;-80
2022/03/01 13:06:42;;;;;;;10.90;6.20;;;14.00;54.80;;;;;;5060987;28;20808;-80
2022/03/01 13:13:13;;;;;;;8.93;5.70;;;14.00;55.60;;;;;;5014862;28;20439;-79